createdAt,value
2018-01-12T00:00:10.321Z,1009.12
2018-01-12T00:01:10.291Z,1009.14
2018-01-12T00:02:10.344Z,1009.11
2018-01-12T00:03:10.256Z,1009.11
2018-01-12T00:04:10.261Z,1009.09
2018-01-12T00:05:10.232Z,1009.12
2018-01-12T00:06:10.215Z,1009.09
2018-01-12T00:07:10.196Z,1009.11
2018-01-12T00:08:10.173Z,1009.09
2018-01-12T00:09:10.162Z,1009.07
2018-01-12T00:10:10.149Z,1009.05
2018-01-12T00:11:10.127Z,1009.06
2018-01-12T00:12:10.119Z,1009.05
2018-01-12T00:13:10.140Z,1009.07
2018-01-12T00:14:10.082Z,1009.09
2018-01-12T00:15:10.074Z,1009.09
2018-01-12T00:16:10.045Z,1009.09
2018-01-12T00:17:10.040Z,1009.09
2018-01-12T00:18:10.018Z,1009.07
2018-01-12T00:19:10.052Z,1009.07
2018-01-12T00:20:09.981Z,1009.09
2018-01-12T00:21:09.962Z,1009.08
2018-01-12T00:22:09.947Z,1009.08
2018-01-12T00:23:09.937Z,1009.05
2018-01-12T00:24:09.917Z,1009.08
2018-01-12T00:25:09.890Z,1009.12
2018-01-12T00:26:09.910Z,1009.06
2018-01-12T00:27:09.858Z,1009.09
2018-01-12T00:28:09.843Z,1009.12
2018-01-12T00:29:09.850Z,1009.05
2018-01-12T00:30:09.808Z,1009.08
2018-01-12T00:31:09.789Z,1009.05
2018-01-12T00:32:09.761Z,1009.07
2018-01-12T00:33:09.738Z,1009.05
2018-01-12T00:34:09.765Z,1009.06
2018-01-12T00:35:09.712Z,1009.05
2018-01-12T00:36:09.691Z,1009.05
2018-01-12T00:37:09.713Z,1009.10
2018-01-12T00:38:09.673Z,1009.07
2018-01-12T00:39:09.691Z,1009.09
2018-01-12T00:40:09.624Z,1009.10
2018-01-12T00:41:09.670Z,1009.12
2018-01-12T00:42:09.589Z,1009.14
2018-01-12T00:43:09.571Z,1009.13
2018-01-12T00:44:09.547Z,1009.11
2018-01-12T00:45:09.532Z,1009.17
2018-01-12T00:46:09.514Z,1009.20
2018-01-12T00:47:09.559Z,1009.15
2018-01-12T00:48:09.485Z,1009.19
2018-01-12T00:49:09.485Z,1009.19
2018-01-12T00:50:09.457Z,1009.18
2018-01-12T00:51:09.475Z,1009.20
2018-01-12T00:52:09.422Z,1009.18
2018-01-12T00:53:09.410Z,1009.16
2018-01-12T00:54:09.459Z,1009.16
2018-01-12T00:55:09.370Z,1009.15
2018-01-12T00:56:09.342Z,1009.19
2018-01-12T00:57:09.350Z,1009.16
2018-01-12T00:58:09.317Z,1009.19
2018-01-12T00:59:09.299Z,1009.18
2018-01-12T01:00:09.306Z,1009.17
2018-01-12T01:01:09.277Z,1009.23
2018-01-12T01:02:09.257Z,1009.22
2018-01-12T01:03:09.244Z,1009.24
2018-01-12T01:04:09.224Z,1009.29
2018-01-12T01:05:09.232Z,1009.30
2018-01-12T01:06:09.189Z,1009.29
2018-01-12T01:07:09.171Z,1009.32
2018-01-12T01:08:09.152Z,1009.31
2018-01-12T01:09:09.126Z,1009.30
2018-01-12T01:10:09.193Z,1009.34
2018-01-12T01:11:09.105Z,1009.35
2018-01-12T01:12:09.085Z,1009.36
2018-01-12T01:13:09.073Z,1009.35
2018-01-12T01:14:09.046Z,1009.35
2018-01-12T01:15:09.024Z,1009.37
2018-01-12T01:16:09.037Z,1009.39
2018-01-12T01:17:08.992Z,1009.37
2018-01-12T01:18:08.988Z,1009.36
2018-01-12T01:19:08.951Z,1009.36
2018-01-12T01:20:08.939Z,1009.36
2018-01-12T01:21:08.993Z,1009.38
2018-01-12T01:22:08.908Z,1009.35
2018-01-12T01:23:08.886Z,1009.42
2018-01-12T01:24:08.877Z,1009.40
2018-01-12T01:25:08.861Z,1009.43
2018-01-12T01:26:08.838Z,1009.47
2018-01-12T01:27:08.821Z,1009.44
2018-01-12T01:28:08.825Z,1009.49
2018-01-12T01:29:08.797Z,1009.51
2018-01-12T01:30:08.772Z,1009.52
2018-01-12T01:31:08.763Z,1009.58
2018-01-12T01:32:08.763Z,1009.61
2018-01-12T01:33:08.717Z,1009.61
2018-01-12T01:34:08.708Z,1009.60
2018-01-12T01:35:08.687Z,1009.67
2018-01-12T01:36:08.674Z,1009.67
2018-01-12T01:37:08.729Z,1009.67
2018-01-12T01:38:08.623Z,1009.69
2018-01-12T01:39:08.630Z,1009.70
2018-01-12T01:40:08.592Z,1009.76
2018-01-12T01:41:08.580Z,1009.72
2018-01-12T01:42:08.563Z,1009.71
2018-01-12T01:43:08.586Z,1009.73
2018-01-12T01:44:08.535Z,1009.71
2018-01-12T01:45:08.558Z,1009.71
2018-01-12T01:46:08.493Z,1009.68
2018-01-12T01:47:08.482Z,1009.74
2018-01-12T01:48:08.461Z,1009.73
2018-01-12T01:49:08.770Z,1009.70
2018-01-12T01:50:08.430Z,1009.74
2018-01-12T01:51:08.398Z,1009.74
2018-01-12T01:52:08.394Z,1009.75
2018-01-12T01:53:08.383Z,1009.79
2018-01-12T01:54:08.357Z,1009.75
2018-01-12T01:55:08.367Z,1009.75
2018-01-12T01:56:08.326Z,1009.75
2018-01-12T01:57:08.322Z,1009.77
2018-01-12T01:58:08.517Z,1009.74
2018-01-12T01:59:08.269Z,1009.77
2018-01-12T02:00:08.311Z,1009.76
2018-01-12T02:01:08.237Z,1009.80
2018-01-12T02:02:08.231Z,1009.80
2018-01-12T02:03:08.204Z,1009.82
2018-01-12T02:04:08.186Z,1009.85
2018-01-12T02:05:08.213Z,1009.87
2018-01-12T02:06:08.168Z,1009.84
2018-01-12T02:07:08.143Z,1009.87
2018-01-12T02:08:08.116Z,1009.86
2018-01-12T02:09:08.106Z,1009.85
2018-01-12T02:10:08.161Z,1009.86
2018-01-12T02:11:08.075Z,1009.87
2018-01-12T02:12:08.047Z,1009.89
2018-01-12T02:13:08.041Z,1009.89
2018-01-12T02:14:08.021Z,1009.92
2018-01-12T02:15:08.002Z,1009.93
2018-01-12T02:16:07.995Z,1009.92
2018-01-12T02:17:07.969Z,1009.91
2018-01-12T02:18:07.957Z,1009.93
2018-01-12T02:19:07.943Z,1009.96
2018-01-12T02:20:07.930Z,1009.94
2018-01-12T02:21:07.927Z,1009.97
2018-01-12T02:22:07.952Z,1010.01
2018-01-12T02:23:07.869Z,1010.02
2018-01-12T02:24:07.865Z,1010.01
2018-01-12T02:25:07.842Z,1010.06
2018-01-12T02:26:07.818Z,1010.04
2018-01-12T02:27:07.806Z,1010.05
2018-01-12T02:28:07.812Z,1010.06
2018-01-12T02:29:07.762Z,1010.04
2018-01-12T02:30:07.743Z,1010.04
2018-01-12T02:31:07.730Z,1010.05
2018-01-12T02:32:07.919Z,1010.06
2018-01-12T02:33:07.700Z,1010.05
2018-01-12T02:34:07.706Z,1010.04
2018-01-12T02:35:07.674Z,1010.05
2018-01-12T02:36:07.651Z,1010.00
2018-01-12T02:37:07.652Z,1010.02
2018-01-12T02:38:07.655Z,1010.03
2018-01-12T02:39:07.602Z,1010.04
2018-01-12T02:40:07.586Z,1010.06
2018-01-12T02:41:07.567Z,1010.06
2018-01-12T02:42:07.571Z,1010.04
2018-01-12T02:43:07.556Z,1010.01
2018-01-12T02:44:07.524Z,1010.03
2018-01-12T02:45:07.511Z,1009.98
2018-01-12T02:46:07.485Z,1010.01
2018-01-12T02:47:07.469Z,1010.02
2018-01-12T02:48:07.449Z,1010.05
2018-01-12T02:49:07.426Z,1010.05
2018-01-12T02:50:07.417Z,1010.05
2018-01-12T02:51:07.408Z,1010.06
2018-01-12T02:52:07.393Z,1010.05
2018-01-12T02:53:07.697Z,1010.04
2018-01-12T02:54:07.359Z,1010.04
2018-01-12T02:55:07.342Z,1010.05
2018-01-12T02:56:07.318Z,1010.08
2018-01-12T02:57:07.299Z,1010.06
2018-01-12T02:58:07.282Z,1010.07
2018-01-12T02:59:07.323Z,1010.10
2018-01-12T03:00:07.258Z,1010.10
2018-01-12T03:01:07.219Z,1010.10
2018-01-12T03:02:07.204Z,1010.11
2018-01-12T03:03:07.186Z,1010.08
2018-01-12T03:04:07.184Z,1010.18
2018-01-12T03:05:07.216Z,1010.16
2018-01-12T03:06:07.145Z,1010.17
2018-01-12T03:07:07.129Z,1010.18
2018-01-12T03:08:07.110Z,1010.18
2018-01-12T03:09:07.111Z,1010.18
2018-01-12T03:10:07.085Z,1010.14
2018-01-12T03:11:07.092Z,1010.16
2018-01-12T03:12:07.047Z,1010.17
2018-01-12T03:13:07.029Z,1010.18
2018-01-12T03:14:07.010Z,1010.16
2018-01-12T03:15:06.991Z,1010.19
2018-01-12T03:16:07.006Z,1010.18
2018-01-12T03:17:06.955Z,1010.18
2018-01-12T03:18:06.945Z,1010.16
2018-01-12T03:19:06.924Z,1010.18
2018-01-12T03:20:06.899Z,1010.17
2018-01-12T03:21:06.953Z,1010.17
2018-01-12T03:22:06.875Z,1010.17
2018-01-12T03:23:06.863Z,1010.18
2018-01-12T03:24:06.841Z,1010.14
2018-01-12T03:25:06.835Z,1010.14
2018-01-12T03:26:06.803Z,1010.17
2018-01-12T03:27:06.845Z,1010.18
2018-01-12T03:28:06.770Z,1010.19
2018-01-12T03:29:06.762Z,1010.18
2018-01-12T03:30:06.733Z,1010.17
2018-01-12T03:31:06.734Z,1010.19
2018-01-12T03:32:06.709Z,1010.20
2018-01-12T03:33:06.687Z,1010.21
2018-01-12T03:34:06.661Z,1010.21
2018-01-12T03:35:06.658Z,1010.23
2018-01-12T03:36:06.652Z,1010.20
2018-01-12T03:37:06.653Z,1010.24
2018-01-12T03:38:06.639Z,1010.24
2018-01-12T03:39:06.584Z,1010.27
2018-01-12T03:40:06.571Z,1010.26
2018-01-12T03:41:06.558Z,1010.24
2018-01-12T03:42:06.841Z,1010.26
2018-01-12T03:43:06.513Z,1010.25
2018-01-12T03:44:06.494Z,1010.21
2018-01-12T03:45:06.488Z,1010.24
2018-01-12T03:46:06.470Z,1010.24
2018-01-12T03:47:06.454Z,1010.25
2018-01-12T03:48:06.445Z,1010.29
2018-01-12T03:49:06.474Z,1010.24
2018-01-12T03:50:06.396Z,1010.26
2018-01-12T03:51:06.390Z,1010.28
2018-01-12T03:52:06.370Z,1010.30
2018-01-12T03:53:06.354Z,1010.27
2018-01-12T03:54:06.342Z,1010.29
2018-01-12T03:55:06.328Z,1010.31
2018-01-12T03:56:06.360Z,1010.27
2018-01-12T03:57:06.296Z,1010.27
2018-01-12T03:58:06.260Z,1010.28
2018-01-12T03:59:06.244Z,1010.31
2018-01-12T04:00:06.238Z,1010.27
2018-01-12T04:01:06.219Z,1010.23
2018-01-12T04:02:06.207Z,1010.26
2018-01-12T04:03:06.188Z,1010.24
2018-01-12T04:04:06.207Z,1010.28
2018-01-12T04:05:06.173Z,1010.26
2018-01-12T04:06:06.131Z,1010.27
2018-01-12T04:07:06.123Z,1010.24
2018-01-12T04:08:06.101Z,1010.23
2018-01-12T04:09:06.120Z,1010.26
2018-01-12T04:10:06.066Z,1010.24
2018-01-12T04:11:06.063Z,1010.25
2018-01-12T04:12:06.028Z,1010.27
2018-01-12T04:13:06.022Z,1010.28
2018-01-12T04:14:06.049Z,1010.30
2018-01-12T04:15:05.989Z,1010.24
2018-01-12T04:16:05.961Z,1010.31
2018-01-12T04:17:05.955Z,1010.29
2018-01-12T04:18:05.929Z,1010.30
2018-01-12T04:19:05.929Z,1010.26
2018-01-12T04:20:05.899Z,1010.28
2018-01-12T04:21:05.884Z,1010.27
2018-01-12T04:22:05.867Z,1010.25
2018-01-12T04:23:05.854Z,1010.29
2018-01-12T04:24:05.828Z,1010.30
2018-01-12T04:25:05.899Z,1010.22
2018-01-12T04:26:05.818Z,1010.27
2018-01-12T04:27:05.787Z,1010.24
2018-01-12T04:28:05.766Z,1010.23
2018-01-12T04:29:05.751Z,1010.23
2018-01-12T04:30:05.729Z,1010.26
2018-01-12T04:31:05.751Z,1010.27
2018-01-12T04:32:05.696Z,1010.27
2018-01-12T04:33:05.704Z,1010.27
2018-01-12T04:34:05.658Z,1010.26
2018-01-12T04:35:05.718Z,1010.30
2018-01-12T04:36:05.629Z,1010.34
2018-01-12T04:37:05.610Z,1010.33
2018-01-12T04:38:05.602Z,1010.33
2018-01-12T04:39:05.570Z,1010.34
2018-01-12T04:40:05.555Z,1010.38
2018-01-12T04:41:05.589Z,1010.38
2018-01-12T04:42:05.525Z,1010.38
2018-01-12T04:43:05.509Z,1010.36
2018-01-12T04:44:05.487Z,1010.39
2018-01-12T04:45:05.472Z,1010.40
2018-01-12T04:46:05.519Z,1010.40
2018-01-12T04:47:05.434Z,1010.39
2018-01-12T04:48:05.421Z,1010.44
2018-01-12T04:49:05.418Z,1010.42
2018-01-12T04:50:05.393Z,1010.41
2018-01-12T04:51:05.372Z,1010.42
2018-01-12T04:52:05.367Z,1010.42
2018-01-12T04:53:05.340Z,1010.44
2018-01-12T04:54:05.316Z,1010.46
2018-01-12T04:55:05.299Z,1010.46
2018-01-12T04:56:05.283Z,1010.47
2018-01-12T04:57:05.299Z,1010.48
2018-01-12T04:58:05.258Z,1010.49
2018-01-12T04:59:05.230Z,1010.49
2018-01-12T05:00:05.219Z,1010.47
2018-01-12T05:01:05.249Z,1010.49
2018-01-12T05:02:05.177Z,1010.49
2018-01-12T05:03:05.164Z,1010.47
2018-01-12T05:04:05.154Z,1010.50
2018-01-12T05:05:05.136Z,1010.48
2018-01-12T05:06:05.113Z,1010.47
2018-01-12T05:07:05.102Z,1010.49
2018-01-12T05:08:05.084Z,1010.49
2018-01-12T05:09:05.073Z,1010.50
2018-01-12T05:10:05.056Z,1010.51
2018-01-12T05:11:05.036Z,1010.50
2018-01-12T05:12:05.038Z,1010.50
2018-01-12T05:13:05.010Z,1010.49
2018-01-12T05:14:04.989Z,1010.50
2018-01-12T05:15:04.954Z,1010.47
2018-01-12T05:16:04.937Z,1010.49
2018-01-12T05:17:04.924Z,1010.54
2018-01-12T05:18:04.913Z,1010.50
2018-01-12T05:19:04.925Z,1010.57
2018-01-12T05:20:04.877Z,1010.55
2018-01-12T05:21:04.868Z,1010.58
2018-01-12T05:22:04.838Z,1010.58
2018-01-12T05:23:04.826Z,1010.53
2018-01-12T05:24:04.867Z,1010.57
2018-01-12T05:25:04.793Z,1010.54
2018-01-12T05:26:04.778Z,1010.57
2018-01-12T05:27:04.761Z,1010.58
2018-01-12T05:28:04.741Z,1010.60
2018-01-12T05:29:04.718Z,1010.55
2018-01-12T05:30:04.741Z,1010.58
2018-01-12T05:31:04.695Z,1010.55
2018-01-12T05:32:05.368Z,1010.58
2018-01-12T05:33:04.651Z,1010.56
2018-01-12T05:34:04.670Z,1010.54
2018-01-12T05:35:04.630Z,1010.56
2018-01-12T05:36:04.616Z,1010.54
2018-01-12T05:37:04.602Z,1010.52
2018-01-12T05:38:04.577Z,1010.54
2018-01-12T05:39:04.562Z,1010.57
2018-01-12T05:40:04.544Z,1010.57
2018-01-12T05:41:04.584Z,1010.55
2018-01-12T05:42:04.518Z,1010.61
2018-01-12T05:43:04.495Z,1010.56
2018-01-12T05:44:04.475Z,1010.55
2018-01-12T05:45:04.464Z,1010.53
2018-01-12T05:46:04.438Z,1010.50
2018-01-12T05:47:04.485Z,1010.55
2018-01-12T05:48:04.411Z,1010.56
2018-01-12T05:49:04.392Z,1010.55
2018-01-12T05:50:04.376Z,1010.54
2018-01-12T05:51:04.359Z,1010.53
2018-01-12T05:52:04.340Z,1010.54
2018-01-12T05:53:04.330Z,1010.54
2018-01-12T05:54:04.298Z,1010.52
2018-01-12T05:55:04.284Z,1010.58
2018-01-12T05:56:04.269Z,1010.53
2018-01-12T05:57:04.333Z,1010.56
2018-01-12T05:58:04.235Z,1010.58
2018-01-12T05:59:04.229Z,1010.58
2018-01-12T06:00:04.209Z,1010.59
2018-01-12T06:01:04.185Z,1010.60
2018-01-12T06:02:04.165Z,1010.58
2018-01-12T06:03:04.154Z,1010.56
2018-01-12T06:04:04.136Z,1010.55
2018-01-12T06:05:04.121Z,1010.56
2018-01-12T06:06:04.114Z,1010.56
2018-01-12T06:07:04.091Z,1010.56
2018-01-12T06:08:04.122Z,1010.57
2018-01-12T06:09:04.062Z,1010.62
2018-01-12T06:10:04.046Z,1010.61
2018-01-12T06:11:04.027Z,1010.66
2018-01-12T06:12:04.001Z,1010.67
2018-01-12T06:13:03.989Z,1010.67
2018-01-12T06:14:04.022Z,1010.66
2018-01-12T06:15:03.950Z,1010.70
2018-01-12T06:16:03.930Z,1010.72
2018-01-12T06:17:03.924Z,1010.71
2018-01-12T06:18:03.909Z,1010.73
2018-01-12T06:19:03.894Z,1010.74
2018-01-12T06:20:03.908Z,1010.77
2018-01-12T06:21:03.848Z,1010.78
2018-01-12T06:22:03.845Z,1010.86
2018-01-12T06:23:03.826Z,1010.80
2018-01-12T06:24:03.807Z,1010.80
2018-01-12T06:25:03.909Z,1010.81
2018-01-12T06:26:03.776Z,1010.82
2018-01-12T06:27:03.770Z,1010.83
2018-01-12T06:28:24.751Z,1010.82
2018-01-12T06:29:03.723Z,1010.82
2018-01-12T06:30:03.708Z,1010.85
2018-01-12T06:31:03.702Z,1010.87
2018-01-12T06:32:03.681Z,1010.83
2018-01-12T06:33:03.658Z,1010.83
2018-01-12T06:34:03.634Z,1010.88
2018-01-12T06:35:03.616Z,1010.89
2018-01-12T06:36:03.663Z,1010.91
2018-01-12T06:37:03.598Z,1010.93
2018-01-12T06:38:03.564Z,1010.99
2018-01-12T06:39:03.560Z,1010.97
2018-01-12T06:40:03.543Z,1010.97
2018-01-12T06:41:03.528Z,1011.00
2018-01-12T06:42:03.564Z,1011.00
2018-01-12T06:43:03.484Z,1010.99
2018-01-12T06:44:03.473Z,1011.03
2018-01-12T06:45:03.464Z,1011.02
2018-01-12T06:46:03.443Z,1011.03
2018-01-12T06:47:03.419Z,1011.00
2018-01-12T06:48:03.412Z,1011.01
2018-01-12T06:49:03.400Z,1011.02
2018-01-12T06:50:03.366Z,1011.00
2018-01-12T06:51:03.357Z,1011.01
2018-01-12T06:52:03.387Z,1011.03
2018-01-12T06:53:03.322Z,1011.05
2018-01-12T06:54:03.301Z,1011.05
2018-01-12T06:55:03.282Z,1011.04
2018-01-12T06:56:03.268Z,1011.06
2018-01-12T06:57:03.249Z,1011.04
2018-01-12T06:58:03.268Z,1011.09
2018-01-12T06:59:03.291Z,1011.05
2018-01-12T07:00:03.212Z,1011.09
2018-01-12T07:01:03.179Z,1011.05
2018-01-12T07:02:03.166Z,1011.10
2018-01-12T07:03:03.151Z,1011.08
2018-01-12T07:04:03.143Z,1011.08
2018-01-12T07:05:03.127Z,1011.13
2018-01-12T07:06:03.102Z,1011.12
2018-01-12T07:07:03.093Z,1011.13
2018-01-12T07:08:03.065Z,1011.15
2018-01-12T07:09:03.102Z,1011.18
2018-01-12T07:10:03.029Z,1011.17
2018-01-12T07:11:03.022Z,1011.17
2018-01-12T07:12:03.008Z,1011.17
2018-01-12T07:13:02.985Z,1011.20
2018-01-12T07:14:02.987Z,1011.24
2018-01-12T07:15:02.957Z,1011.19
2018-01-12T07:16:02.926Z,1011.19
2018-01-12T07:17:02.918Z,1011.23
2018-01-12T07:18:02.894Z,1011.25
2018-01-12T07:19:02.878Z,1011.27
2018-01-12T07:20:02.922Z,1011.24
2018-01-12T07:21:02.843Z,1011.28
2018-01-12T07:22:02.824Z,1011.26
2018-01-12T07:23:02.857Z,1011.27
2018-01-12T07:24:02.804Z,1011.24
2018-01-12T07:25:02.795Z,1011.25
2018-01-12T07:26:02.827Z,1011.29
2018-01-12T07:27:02.752Z,1011.27
2018-01-12T07:28:02.733Z,1011.23
2018-01-12T07:29:02.721Z,1011.27
2018-01-12T07:30:02.697Z,1011.27
2018-01-12T07:31:02.683Z,1011.25
2018-01-12T07:32:02.948Z,1011.26
2018-01-12T07:33:02.639Z,1011.28
2018-01-12T07:34:02.636Z,1011.27
2018-01-12T07:35:02.612Z,1011.29
2018-01-12T07:36:02.590Z,1011.31
2018-01-12T07:37:02.577Z,1011.28
2018-01-12T07:38:02.558Z,1011.33
2018-01-12T07:39:02.550Z,1011.29
2018-01-12T07:40:02.533Z,1011.32
2018-01-12T07:41:02.516Z,1011.33
2018-01-12T07:42:02.501Z,1011.31
2018-01-12T07:43:02.505Z,1011.31
2018-01-12T07:44:02.463Z,1011.33
2018-01-12T07:45:02.445Z,1011.38
2018-01-12T07:46:02.425Z,1011.37
2018-01-12T07:47:02.456Z,1011.41
2018-01-12T07:48:02.384Z,1011.41
2018-01-12T07:49:02.378Z,1011.40
2018-01-12T07:50:02.367Z,1011.44
2018-01-12T07:51:02.345Z,1011.42
2018-01-12T07:52:02.322Z,1011.43
2018-01-12T07:53:02.434Z,1011.46
2018-01-12T07:54:02.294Z,1011.47
2018-01-12T07:55:02.287Z,1011.49
2018-01-12T07:56:02.259Z,1011.53
2018-01-12T07:57:02.241Z,1011.52
2018-01-12T07:58:02.222Z,1011.55
2018-01-12T07:59:02.227Z,1011.54
2018-01-12T08:00:02.191Z,1011.56
2018-01-12T08:01:02.173Z,1011.57
2018-01-12T08:02:02.161Z,1011.58
2018-01-12T08:03:02.129Z,1011.60
2018-01-12T08:04:02.145Z,1011.62
2018-01-12T08:05:02.114Z,1011.63
2018-01-12T08:06:02.138Z,1011.64
2018-01-12T08:07:02.065Z,1011.68
2018-01-12T08:08:02.084Z,1011.72
2018-01-12T08:09:02.036Z,1011.73
2018-01-12T08:10:02.028Z,1011.75
2018-01-12T08:11:54.543Z,1011.74
2018-01-12T08:12:01.985Z,1011.77
2018-01-12T08:13:01.991Z,1011.77
2018-01-12T08:14:01.967Z,1011.75
2018-01-12T08:15:02.635Z,1011.78
2018-01-12T08:16:01.944Z,1011.80
2018-01-12T08:17:01.894Z,1011.87
2018-01-12T08:18:01.926Z,1011.88
2018-01-12T08:19:01.856Z,1011.86
2018-01-12T08:20:01.843Z,1011.90
2018-01-12T08:21:01.823Z,1011.90
2018-01-12T08:22:01.816Z,1011.89
2018-01-12T08:23:01.789Z,1011.91
2018-01-12T08:24:01.797Z,1011.90
2018-01-12T08:25:01.751Z,1011.88
2018-01-12T08:26:01.731Z,1011.88
2018-01-12T08:27:01.712Z,1011.90
2018-01-12T08:28:01.708Z,1011.94
2018-01-12T08:29:01.728Z,1011.98
2018-01-12T08:30:01.667Z,1011.98
2018-01-12T08:31:01.652Z,1011.99
2018-01-12T08:32:01.635Z,1012.00
2018-01-12T08:33:01.622Z,1012.00
2018-01-12T08:34:01.628Z,1012.04
2018-01-12T08:35:01.586Z,1012.02
2018-01-12T08:36:01.566Z,1012.08
2018-01-12T08:37:01.548Z,1012.06
2018-01-12T08:38:01.525Z,1012.09
2018-01-12T08:39:01.565Z,1012.07
2018-01-12T08:40:01.495Z,1012.10
2018-01-12T08:41:01.484Z,1012.09
2018-01-12T08:42:01.469Z,1012.10
2018-01-12T08:43:01.458Z,1012.11
2018-01-12T08:44:02.155Z,1012.14
2018-01-12T08:45:02.860Z,1012.15
2018-01-12T08:46:01.918Z,1012.13
2018-01-12T08:47:02.176Z,1012.15
2018-01-12T08:48:01.550Z,1012.16
2018-01-12T08:49:01.377Z,1012.16
2018-01-12T08:50:01.340Z,1012.14
2018-01-12T08:51:01.461Z,1012.14
2018-01-12T08:52:01.305Z,1012.14
2018-01-12T08:53:01.279Z,1012.18
2018-01-12T08:54:02.348Z,1012.22
2018-01-12T08:55:01.238Z,1012.20
2018-01-12T08:56:01.221Z,1012.24
2018-01-12T08:57:01.227Z,1012.27
2018-01-12T08:58:01.782Z,1012.33
2018-01-12T08:59:01.237Z,1012.32
2018-01-12T09:00:01.745Z,1012.36
2018-01-12T09:01:01.204Z,1012.42
2018-01-12T09:02:01.132Z,1012.41
2018-01-12T09:03:01.125Z,1012.48
2018-01-12T09:04:01.632Z,1012.48
2018-01-12T09:05:01.087Z,1012.50
2018-01-12T09:06:01.071Z,1012.48
2018-01-12T09:07:01.109Z,1012.49
2018-01-12T09:08:01.027Z,1012.48
2018-01-12T09:09:06.310Z,1012.51
2018-01-12T09:10:00.994Z,1012.54
2018-01-12T09:11:01.096Z,1012.54
2018-01-12T09:12:01.288Z,1012.58
2018-01-12T09:13:00.959Z,1012.57
2018-01-12T09:14:01.076Z,1012.59
2018-01-12T09:15:00.925Z,1012.58
2018-01-12T09:16:01.008Z,1012.57
2018-01-12T09:17:00.877Z,1012.59
2018-01-12T09:18:00.954Z,1012.56
2018-01-12T09:19:00.852Z,1012.61
2018-01-12T09:20:00.825Z,1012.58
2018-01-12T09:21:00.798Z,1012.63
2018-01-12T09:22:00.777Z,1012.62
2018-01-12T09:23:00.774Z,1012.61
2018-01-12T09:24:00.794Z,1012.65
2018-01-12T09:25:00.735Z,1012.63
2018-01-12T09:26:00.717Z,1012.67
2018-01-12T09:27:00.704Z,1012.64
2018-01-12T09:28:00.686Z,1012.65
2018-01-12T09:29:00.739Z,1012.64
2018-01-12T09:30:00.649Z,1012.70
2018-01-12T09:31:00.639Z,1012.68
2018-01-12T09:32:00.605Z,1012.72
2018-01-12T09:33:00.595Z,1012.71
2018-01-12T09:34:00.592Z,1012.70
2018-01-12T09:35:00.571Z,1012.73
2018-01-12T09:36:00.551Z,1012.75
2018-01-12T09:37:00.531Z,1012.75
2018-01-12T09:38:00.514Z,1012.78
2018-01-12T09:39:01.433Z,1012.78
2018-01-12T09:40:01.472Z,1012.80
2018-01-12T09:41:00.469Z,1012.79
2018-01-12T09:42:00.452Z,1012.83
2018-01-12T09:43:01.426Z,1012.86
2018-01-12T09:44:00.476Z,1012.83
2018-01-12T09:45:00.510Z,1012.84
2018-01-12T09:46:00.391Z,1012.83
2018-01-12T09:47:00.375Z,1012.83
2018-01-12T09:48:00.350Z,1012.81
2018-01-12T09:49:00.335Z,1012.82
2018-01-12T09:50:00.308Z,1012.81
2018-01-12T09:51:00.484Z,1012.83
2018-01-12T09:52:00.283Z,1012.81
2018-01-12T09:53:00.264Z,1012.81
2018-01-12T09:54:00.250Z,1012.83
2018-01-12T09:55:00.239Z,1012.82
2018-01-12T09:56:00.207Z,1012.84
2018-01-12T09:57:00.234Z,1012.82
2018-01-12T09:58:00.200Z,1012.81
2018-01-12T09:59:00.170Z,1012.78
2018-01-12T10:00:00.158Z,1012.84
2018-01-12T10:01:00.140Z,1012.83
2018-01-12T10:02:00.450Z,1012.85
2018-01-12T10:03:00.105Z,1012.83
2018-01-12T10:04:00.088Z,1012.83
2018-01-12T10:05:00.082Z,1012.84
2018-01-12T10:06:00.056Z,1012.88
2018-01-12T10:07:00.035Z,1012.84
2018-01-12T10:08:00.038Z,1012.87
2018-01-12T10:09:00.007Z,1012.84
2018-01-12T10:09:59.975Z,1012.86
2018-01-12T10:10:59.976Z,1012.87
2018-01-12T10:11:59.966Z,1012.87
2018-01-12T10:12:59.959Z,1012.88
2018-01-12T10:14:00.421Z,1012.88
2018-01-12T10:14:59.919Z,1012.84
2018-01-12T10:15:59.888Z,1012.85
2018-01-12T10:16:59.881Z,1012.85
2018-01-12T10:18:00.763Z,1012.84
2018-01-12T10:18:59.840Z,1012.87
2018-01-12T10:19:59.826Z,1012.88
2018-01-12T10:20:59.801Z,1012.86
2018-01-12T10:21:59.788Z,1012.92
2018-01-12T10:22:59.776Z,1012.89
2018-01-12T10:24:00.686Z,1012.87
2018-01-12T10:24:59.744Z,1012.91
2018-01-12T10:25:59.761Z,1012.91
2018-01-12T10:27:00.456Z,1012.87
2018-01-12T10:28:00.481Z,1012.91
2018-01-12T10:28:59.662Z,1012.91
2018-01-12T10:29:59.681Z,1012.92
2018-01-12T10:30:59.650Z,1012.88
2018-01-12T10:31:59.648Z,1012.94
2018-01-12T10:32:59.864Z,1012.94
2018-01-12T10:33:59.589Z,1012.93
2018-01-12T10:34:59.903Z,1012.90
2018-01-12T10:35:59.613Z,1012.93
2018-01-12T10:36:59.542Z,1012.89
2018-01-12T10:37:59.535Z,1012.92
2018-01-12T10:38:59.501Z,1012.95
2018-01-12T10:39:59.499Z,1012.93
2018-01-12T10:40:59.534Z,1012.91
2018-01-12T10:41:59.465Z,1012.93
2018-01-12T10:42:59.511Z,1012.93
2018-01-12T10:43:59.431Z,1012.98
2018-01-12T10:44:59.465Z,1012.92
2018-01-12T10:45:59.395Z,1012.93
2018-01-12T10:46:59.576Z,1012.95
2018-01-12T10:47:59.448Z,1012.91
2018-01-12T10:48:59.481Z,1012.95
2018-01-12T10:49:59.318Z,1012.95
2018-01-12T10:50:59.319Z,1012.91
2018-01-12T10:51:59.317Z,1012.90
2018-01-12T10:52:59.286Z,1012.89
2018-01-12T10:53:59.488Z,1012.89
2018-01-12T10:54:59.250Z,1012.93
2018-01-12T10:55:59.233Z,1012.96
2018-01-12T10:56:59.249Z,1012.98
2018-01-12T10:57:59.353Z,1012.96
2018-01-12T10:58:59.577Z,1012.97
2018-01-12T10:59:59.169Z,1012.91
2018-01-12T11:00:59.166Z,1012.94
2018-01-12T11:01:59.152Z,1012.94
2018-01-12T11:02:59.114Z,1012.93
2018-01-12T11:03:59.134Z,1012.96
2018-01-12T11:04:59.089Z,1012.95
2018-01-12T11:05:59.065Z,1013.00
2018-01-12T11:06:59.092Z,1013.00
2018-01-12T11:07:59.078Z,1013.03
2018-01-12T11:08:59.019Z,1013.04
2018-01-12T11:09:59.012Z,1013.04
2018-01-12T11:10:58.995Z,1013.05
2018-01-12T11:11:58.980Z,1013.07
2018-01-12T11:12:59.043Z,1013.07
2018-01-12T11:13:58.954Z,1013.12
2018-01-12T11:14:58.929Z,1013.07
2018-01-12T11:15:58.914Z,1013.06
2018-01-12T11:16:58.892Z,1013.08
2018-01-12T11:17:58.887Z,1013.08
2018-01-12T11:18:58.919Z,1013.08
2018-01-12T11:19:58.915Z,1013.08
2018-01-12T11:20:58.831Z,1013.06
2018-01-12T11:21:58.816Z,1013.05
2018-01-12T11:22:58.795Z,1013.05
2018-01-12T11:23:58.777Z,1013.00
2018-01-12T11:24:58.973Z,1013.03
2018-01-12T11:25:58.756Z,1012.99
2018-01-12T11:26:58.748Z,1012.99
2018-01-12T11:27:58.724Z,1012.94
2018-01-12T11:28:58.717Z,1012.92
2018-01-12T11:29:58.693Z,1012.90
2018-01-12T11:30:58.741Z,1012.91
2018-01-12T11:31:58.662Z,1012.88
2018-01-12T11:32:58.647Z,1012.91
2018-01-12T11:33:58.625Z,1012.86
2018-01-12T11:34:58.609Z,1012.85
2018-01-12T11:35:58.597Z,1012.84
2018-01-12T11:36:58.584Z,1012.85
2018-01-12T11:37:58.559Z,1012.85
2018-01-12T11:38:58.541Z,1012.89
2018-01-12T11:39:58.598Z,1012.86
2018-01-12T11:40:58.518Z,1012.90
2018-01-12T11:41:58.500Z,1012.88
2018-01-12T11:42:58.481Z,1012.88
2018-01-12T11:43:58.467Z,1012.86
2018-01-12T11:44:58.451Z,1012.88
2018-01-12T11:45:58.440Z,1012.88
2018-01-12T11:46:58.425Z,1012.86
2018-01-12T11:47:58.398Z,1012.84
2018-01-12T11:48:58.383Z,1012.88
2018-01-12T11:49:58.371Z,1012.84
2018-01-12T11:50:58.418Z,1012.82
2018-01-12T11:51:58.341Z,1012.80
2018-01-12T11:52:58.325Z,1012.80
2018-01-12T11:53:58.301Z,1012.78
2018-01-12T11:54:58.294Z,1012.81
2018-01-12T11:55:58.271Z,1012.85
2018-01-12T11:56:58.527Z,1012.82
2018-01-12T11:57:58.401Z,1012.80
2018-01-12T11:58:58.861Z,1012.83
2018-01-12T11:59:58.563Z,1012.83
2018-01-12T12:00:58.187Z,1012.80
2018-01-12T12:01:58.252Z,1012.79
2018-01-12T12:02:58.634Z,1012.76
2018-01-12T12:03:58.274Z,1012.75
2018-01-12T12:04:58.135Z,1012.74